createdAt,value
2023-03-16T00:00:50.012Z,51.10
2023-03-16T00:01:52.751Z,51.18
2023-03-16T00:02:55.514Z,51.34
2023-03-16T00:03:58.138Z,51.26
2023-03-16T00:05:00.797Z,51.40
2023-03-16T00:06:03.569Z,51.55
2023-03-16T00:07:12.214Z,51.43
2023-03-16T00:08:16.124Z,51.51
2023-03-16T00:09:18.754Z,51.62
2023-03-16T00:10:28.429Z,51.66
2023-03-16T00:11:31.712Z,51.74
2023-03-16T00:12:36.009Z,51.78
2023-03-16T00:13:38.649Z,51.53
2023-03-16T00:14:41.286Z,51.71
2023-03-16T00:15:54.713Z,51.90
2023-03-16T00:16:57.400Z,51.98
2023-03-16T00:18:00.318Z,51.63
2023-03-16T00:19:04.434Z,51.52
2023-03-16T00:20:08.124Z,51.63
2023-03-16T00:21:10.960Z,51.93
2023-03-16T00:22:16.342Z,51.74
2023-03-16T00:23:19.782Z,52.04
2023-03-16T00:24:26.055Z,51.84
2023-03-16T00:25:28.668Z,51.72
2023-03-16T00:26:31.344Z,51.93
2023-03-16T00:27:34.049Z,51.84
2023-03-16T00:28:37.607Z,52.00
2023-03-16T00:29:40.389Z,52.05
2023-03-16T00:30:43.053Z,51.52
2023-03-16T00:31:45.767Z,51.66
2023-03-16T00:32:48.524Z,51.84
2023-03-16T00:33:51.172Z,51.98
2023-03-16T00:34:53.904Z,51.84
2023-03-16T00:36:03.215Z,51.90
2023-03-16T00:37:06.272Z,51.97
2023-03-16T00:38:08.963Z,52.00
2023-03-16T00:39:12.887Z,52.01
2023-03-16T00:40:15.796Z,51.93
2023-03-16T00:41:18.446Z,52.11
2023-03-16T00:42:21.499Z,52.35
2023-03-16T00:43:24.186Z,52.21
2023-03-16T00:44:26.804Z,52.12
2023-03-16T00:45:29.487Z,52.25
2023-03-16T00:46:32.364Z,52.29
2023-03-16T00:47:35.913Z,52.40
2023-03-16T00:48:40.575Z,52.67
2023-03-16T00:49:45.087Z,52.55
2023-03-16T00:50:47.742Z,52.71
2023-03-16T00:51:50.505Z,52.88
2023-03-16T00:52:54.798Z,53.01
2023-03-16T00:53:57.444Z,52.83
2023-03-16T00:55:00.152Z,52.90
2023-03-16T00:56:06.880Z,52.98
2023-03-16T00:57:10.280Z,53.19
2023-03-16T00:58:15.971Z,53.07
2023-03-16T00:59:20.706Z,53.20
2023-03-16T01:00:25.124Z,53.21
2023-03-16T01:01:28.498Z,53.33
2023-03-16T01:02:31.119Z,53.52
2023-03-16T01:03:34.597Z,53.68
2023-03-16T01:04:37.883Z,53.60
2023-03-16T01:05:43.698Z,53.65
2023-03-16T01:06:47.481Z,53.84
2023-03-16T01:07:50.205Z,53.94
2023-03-16T01:08:56.394Z,54.05
2023-03-16T01:09:59.370Z,54.18
2023-03-16T01:11:19.747Z,53.96
2023-03-16T01:12:22.419Z,54.00
2023-03-16T01:13:25.066Z,54.16
2023-03-16T01:14:28.073Z,54.30
2023-03-16T01:15:32.149Z,54.28
2023-03-16T01:16:34.929Z,54.29
2023-03-16T01:17:37.664Z,54.39
2023-03-16T01:18:40.465Z,54.71
2023-03-16T01:19:43.670Z,54.60
2023-03-16T01:20:51.802Z,54.82
2023-03-16T01:21:54.673Z,54.92
2023-03-16T01:22:57.312Z,55.03
2023-03-16T01:23:59.933Z,55.31
2023-03-16T01:25:02.601Z,54.93
2023-03-16T01:26:05.566Z,54.86
2023-03-16T01:27:08.908Z,55.06
2023-03-16T01:28:11.752Z,55.34
2023-03-16T01:29:14.422Z,55.08
2023-03-16T01:30:17.101Z,55.01
2023-03-16T01:31:19.846Z,54.91
2023-03-16T01:32:22.520Z,54.48
2023-03-16T01:33:28.097Z,54.73
2023-03-16T01:34:31.377Z,54.39
2023-03-16T01:35:34.060Z,54.49
2023-03-16T01:36:36.717Z,54.67
2023-03-16T01:37:39.421Z,55.41
2023-03-16T01:38:42.613Z,55.05
2023-03-16T01:39:45.268Z,54.50
2023-03-16T01:40:51.894Z,54.52
2023-03-16T01:41:54.678Z,54.44
2023-03-16T01:43:04.119Z,54.71
2023-03-16T01:44:07.039Z,55.09
2023-03-16T01:45:48.183Z,54.62
2023-03-16T01:46:51.704Z,55.06
2023-03-16T01:47:54.870Z,55.21
2023-03-16T01:49:06.623Z,54.74
2023-03-16T01:50:09.658Z,54.79
2023-03-16T01:51:17.073Z,54.93
2023-03-16T01:52:25.465Z,54.57
2023-03-16T01:53:28.139Z,55.47
2023-03-16T01:54:43.749Z,55.07
2023-03-16T01:55:47.938Z,54.90
2023-03-16T01:56:57.009Z,54.67
2023-03-16T01:57:59.684Z,54.45
2023-03-16T01:59:06.690Z,55.06
2023-03-16T02:00:19.743Z,55.09
2023-03-16T02:01:22.658Z,55.11
2023-03-16T02:02:30.973Z,55.10
2023-03-16T02:03:36.777Z,55.94
2023-03-16T02:04:54.620Z,55.29
2023-03-16T02:06:26.528Z,55.65
2023-03-16T02:07:32.725Z,55.44
2023-03-16T02:08:37.534Z,55.34
2023-03-16T02:09:43.914Z,55.71
2023-03-16T02:10:47.028Z,55.58
2023-03-16T02:11:50.237Z,55.69
2023-03-16T02:12:53.946Z,55.85
2023-03-16T02:14:02.459Z,56.03
2023-03-16T02:15:05.812Z,56.17
2023-03-16T02:16:09.804Z,56.21
2023-03-16T02:17:13.543Z,56.01
2023-03-16T02:18:16.542Z,56.20
2023-03-16T02:19:43.344Z,56.60
2023-03-16T02:20:51.253Z,56.38
2023-03-16T02:22:05.278Z,56.47
2023-03-16T02:23:19.505Z,56.32
2023-03-16T02:24:22.853Z,56.34
2023-03-16T02:25:31.385Z,56.47
2023-03-16T02:26:48.936Z,56.53
2023-03-16T02:28:18.954Z,56.65
2023-03-16T02:29:58.368Z,57.01
2023-03-16T02:31:03.253Z,57.17
2023-03-16T02:32:07.150Z,57.10
2023-03-16T02:33:10.358Z,57.31
2023-03-16T02:34:15.565Z,57.27
2023-03-16T02:35:18.429Z,58.16
2023-03-16T02:36:22.043Z,57.20
2023-03-16T02:37:24.688Z,57.21
2023-03-16T02:38:27.502Z,57.26
2023-03-16T02:39:30.154Z,57.36
2023-03-16T02:40:35.891Z,57.49
2023-03-16T02:41:38.797Z,57.51
2023-03-16T02:42:41.845Z,57.42
2023-03-16T02:43:54.856Z,57.31
2023-03-16T02:45:00.018Z,57.77
2023-03-16T02:46:06.222Z,57.57
2023-03-16T02:47:16.414Z,57.22
2023-03-16T02:48:31.116Z,57.26
2023-03-16T02:49:43.443Z,57.16
2023-03-16T02:50:48.409Z,57.39
2023-03-16T02:51:51.190Z,57.58
2023-03-16T02:52:53.815Z,58.60
2023-03-16T02:53:57.016Z,58.61
2023-03-16T02:54:59.665Z,57.73
2023-03-16T02:56:04.141Z,57.61
2023-03-16T02:57:06.821Z,58.27
2023-03-16T02:58:09.531Z,57.51
2023-03-16T02:59:13.277Z,57.27
2023-03-16T03:00:19.847Z,57.56
2023-03-16T03:01:22.815Z,57.59
2023-03-16T03:02:25.622Z,57.67
2023-03-16T03:03:28.407Z,57.46
2023-03-16T03:04:31.089Z,57.17
2023-03-16T03:05:33.709Z,57.04
2023-03-16T03:06:36.646Z,57.77
2023-03-16T03:07:39.588Z,57.39
2023-03-16T03:08:43.721Z,56.94
2023-03-16T03:09:46.377Z,57.11
2023-03-16T03:10:49.437Z,57.66
2023-03-16T03:11:52.025Z,57.73
2023-03-16T03:12:54.672Z,57.44
2023-03-16T03:13:57.560Z,57.18
2023-03-16T03:15:00.509Z,57.19
2023-03-16T03:16:03.206Z,57.81
2023-03-16T03:17:11.050Z,58.59
2023-03-16T03:18:15.567Z,57.93
2023-03-16T03:19:18.264Z,57.94
2023-03-16T03:20:21.004Z,58.09
2023-03-16T03:21:25.096Z,57.78
2023-03-16T03:22:28.185Z,57.93
2023-03-16T03:23:31.399Z,57.65
2023-03-16T03:24:35.602Z,57.58
2023-03-16T03:25:38.279Z,57.68
2023-03-16T03:26:40.973Z,57.81
2023-03-16T03:27:44.731Z,57.44
2023-03-16T03:28:47.593Z,57.42
2023-03-16T03:29:50.289Z,57.48
2023-03-16T03:30:53.182Z,57.33
2023-03-16T03:31:55.849Z,57.46
2023-03-16T03:32:58.521Z,57.89
2023-03-16T03:34:07.453Z,58.14
2023-03-16T03:35:10.246Z,57.70
2023-03-16T03:36:13.498Z,58.15
2023-03-16T03:37:16.181Z,58.59
2023-03-16T03:38:18.815Z,57.85
2023-03-16T03:39:21.486Z,58.11
2023-03-16T03:40:24.151Z,57.67
2023-03-16T03:41:27.203Z,57.86
2023-03-16T03:42:29.845Z,58.02
2023-03-16T03:43:32.483Z,58.01
2023-03-16T03:44:38.166Z,58.09
2023-03-16T03:45:40.837Z,58.08
2023-03-16T03:46:43.710Z,58.01
2023-03-16T03:47:46.434Z,58.29
2023-03-16T03:48:49.087Z,58.22
2023-03-16T03:49:51.746Z,58.15
2023-03-16T03:50:54.862Z,58.12
2023-03-16T03:52:00.231Z,58.43
2023-03-16T03:53:02.860Z,58.59
2023-03-16T03:54:05.865Z,58.61
2023-03-16T03:55:09.083Z,58.64
2023-03-16T03:56:11.699Z,58.82
2023-03-16T03:57:14.423Z,59.00
2023-03-16T03:58:17.071Z,59.03
2023-03-16T03:59:19.792Z,59.02
2023-03-16T04:00:23.066Z,59.26
2023-03-16T04:01:25.732Z,59.11
2023-03-16T04:02:28.503Z,59.25
2023-03-16T04:03:32.177Z,58.91
2023-03-16T04:04:34.853Z,58.98
2023-03-16T04:05:37.602Z,59.15
2023-03-16T04:06:40.328Z,59.53
2023-03-16T04:07:43.008Z,59.35
2023-03-16T04:08:45.665Z,59.13
2023-03-16T04:09:48.366Z,59.30
2023-03-16T04:10:51.194Z,59.30
2023-03-16T04:11:54.096Z,59.24
2023-03-16T04:12:57.448Z,60.21
2023-03-16T04:14:00.276Z,59.54
2023-03-16T04:15:03.124Z,59.42
2023-03-16T04:16:05.994Z,59.43
2023-03-16T04:17:08.780Z,59.55
2023-03-16T04:18:11.492Z,59.33
2023-03-16T04:19:14.166Z,59.40
2023-03-16T04:20:20.476Z,59.67
2023-03-16T04:21:23.743Z,59.64
2023-03-16T04:22:26.426Z,59.46
2023-03-16T04:23:29.052Z,59.51
2023-03-16T04:24:35.361Z,59.78
2023-03-16T04:25:39.647Z,59.56
2023-03-16T04:26:46.097Z,59.74
2023-03-16T04:27:48.756Z,60.09
2023-03-16T04:28:52.849Z,60.10
2023-03-16T04:29:57.873Z,59.52
2023-03-16T04:31:09.380Z,59.65
2023-03-16T04:32:12.778Z,59.79
2023-03-16T04:33:16.061Z,60.55
2023-03-16T04:34:18.768Z,59.82
2023-03-16T04:35:21.403Z,59.81
2023-03-16T04:36:26.812Z,60.12
2023-03-16T04:37:29.422Z,59.86
2023-03-16T04:38:34.988Z,59.82
2023-03-16T04:39:37.783Z,60.06
2023-03-16T04:40:40.615Z,59.96
2023-03-16T04:41:43.224Z,60.20
2023-03-16T04:42:47.246Z,60.34
2023-03-16T04:43:49.922Z,60.46
2023-03-16T04:44:52.605Z,60.55
2023-03-16T04:45:55.424Z,60.49
2023-03-16T04:46:58.074Z,61.17
2023-03-16T04:48:00.809Z,60.56
2023-03-16T04:49:03.555Z,60.50
2023-03-16T04:50:07.333Z,60.75
2023-03-16T04:51:10.092Z,60.64
2023-03-16T04:52:12.809Z,60.57
2023-03-16T04:53:15.644Z,60.51
2023-03-16T04:54:18.358Z,60.66
2023-03-16T04:55:21.010Z,60.76
2023-03-16T04:56:24.902Z,60.84
2023-03-16T04:57:27.631Z,61.02
2023-03-16T04:58:30.425Z,61.00
2023-03-16T04:59:33.173Z,61.03
2023-03-16T05:00:35.831Z,61.03
2023-03-16T05:01:40.028Z,61.19
2023-03-16T05:02:42.740Z,61.19
2023-03-16T05:03:46.355Z,61.43
2023-03-16T05:04:49.591Z,61.22
2023-03-16T05:05:52.629Z,61.21
2023-03-16T05:06:55.305Z,61.58
2023-03-16T05:07:57.960Z,61.23
2023-03-16T05:09:04.697Z,61.28
2023-03-16T05:10:07.697Z,61.10
2023-03-16T05:11:10.433Z,61.00
2023-03-16T05:12:13.214Z,61.21
2023-03-16T05:13:15.953Z,61.04
2023-03-16T05:14:18.550Z,61.38
2023-03-16T05:15:21.256Z,61.56
2023-03-16T05:16:23.920Z,61.89
2023-03-16T05:17:26.615Z,61.95
2023-03-16T05:18:29.318Z,61.93
2023-03-16T05:19:32.018Z,61.90
2023-03-16T05:20:34.665Z,62.00
2023-03-16T05:21:38.855Z,61.89
2023-03-16T05:22:43.361Z,61.96
2023-03-16T05:23:45.986Z,61.76
2023-03-16T05:24:48.754Z,61.95
2023-03-16T05:25:51.998Z,61.71
2023-03-16T05:26:54.679Z,61.75
2023-03-16T05:27:58.580Z,61.57
2023-03-16T05:29:01.938Z,61.44
2023-03-16T05:30:04.784Z,61.58
2023-03-16T05:31:07.700Z,61.59
2023-03-16T05:32:10.334Z,61.65
2023-03-16T05:33:13.766Z,61.55
2023-03-16T05:34:16.874Z,61.67
2023-03-16T05:35:22.079Z,61.47
2023-03-16T05:36:26.562Z,61.53
2023-03-16T05:37:29.200Z,61.40
2023-03-16T05:38:33.047Z,61.38
2023-03-16T05:39:35.796Z,61.35
2023-03-16T05:40:38.560Z,61.37
2023-03-16T05:41:42.203Z,61.38
2023-03-16T05:42:46.907Z,61.32
2023-03-16T05:45:41.829Z,61.14
2023-03-16T05:46:50.398Z,61.19
2023-03-16T05:52:34.950Z,60.61
2023-03-16T05:53:37.653Z,60.54
2023-03-16T05:54:44.859Z,60.45
2023-03-16T05:55:55.376Z,60.43
2023-03-16T05:56:58.092Z,60.76
2023-03-16T05:58:00.766Z,60.72
2023-03-16T05:59:03.803Z,60.56
2023-03-16T06:00:17.601Z,60.51
2023-03-16T06:01:21.377Z,60.31
2023-03-16T06:02:24.317Z,60.23
2023-03-16T06:03:27.318Z,60.28
2023-03-16T06:04:29.986Z,60.13
2023-03-16T06:05:33.253Z,60.74
2023-03-16T06:06:36.034Z,60.24
2023-03-16T06:07:38.753Z,60.19
2023-03-16T06:08:41.423Z,60.09
2023-03-16T06:09:44.037Z,59.90
2023-03-16T06:10:50.018Z,59.82
2023-03-16T06:11:52.627Z,59.76
2023-03-16T06:12:55.263Z,59.88
2023-03-16T06:13:58.957Z,59.74
2023-03-16T06:15:02.611Z,59.76
2023-03-16T06:17:22.736Z,59.54
2023-03-16T06:18:26.051Z,59.49
2023-03-16T06:19:28.716Z,59.43
2023-03-16T06:20:31.459Z,59.57
2023-03-16T06:22:12.398Z,59.37
2023-03-16T06:23:21.709Z,58.97
2023-03-16T06:24:24.387Z,58.99
2023-03-16T06:25:27.125Z,59.15
2023-03-16T06:26:29.775Z,59.60
2023-03-16T06:27:32.482Z,59.23
2023-03-16T06:28:35.254Z,59.01
2023-03-16T06:29:37.951Z,58.99
2023-03-16T06:30:41.302Z,58.91
2023-03-16T06:31:43.985Z,58.88
2023-03-16T06:32:46.869Z,59.27
2023-03-16T06:33:49.606Z,58.84
2023-03-16T06:34:52.591Z,58.52
2023-03-16T06:35:55.258Z,58.27
2023-03-16T06:36:59.089Z,58.25
2023-03-16T06:38:02.117Z,58.52
2023-03-16T06:39:06.135Z,58.49
2023-03-16T06:40:09.366Z,58.46
2023-03-16T06:41:12.021Z,58.42
2023-03-16T06:42:14.694Z,58.59
2023-03-16T06:43:17.376Z,57.97
2023-03-16T06:44:20.148Z,58.37
2023-03-16T06:45:23.330Z,57.86
2023-03-16T06:46:26.114Z,57.55
2023-03-16T06:47:29.054Z,57.51
2023-03-16T06:48:32.390Z,57.44
2023-03-16T06:49:35.129Z,57.36
2023-03-16T06:50:37.922Z,57.26
2023-03-16T06:51:40.562Z,57.33
2023-03-16T06:52:43.256Z,57.47
2023-03-16T06:53:45.962Z,57.07
2023-03-16T06:54:48.690Z,57.00
2023-03-16T06:55:52.375Z,57.16
2023-03-16T06:56:55.031Z,56.89
2023-03-16T06:57:57.693Z,57.17
2023-03-16T06:59:00.358Z,57.15
2023-03-16T07:00:05.291Z,57.07
2023-03-16T07:01:08.512Z,57.50
2023-03-16T07:02:15.545Z,57.31
2023-03-16T07:03:18.394Z,56.84
2023-03-16T07:04:21.091Z,56.63
2023-03-16T07:05:23.857Z,56.79
2023-03-16T07:06:26.727Z,56.40
2023-03-16T07:07:29.751Z,56.33
2023-03-16T07:08:32.532Z,56.40
2023-03-16T07:09:38.219Z,56.14
2023-03-16T07:10:42.023Z,55.64
2023-03-16T07:11:45.822Z,55.82
2023-03-16T07:12:48.739Z,55.79
2023-03-16T07:13:51.380Z,56.13
2023-03-16T07:14:54.356Z,56.01
2023-03-16T07:15:57.263Z,55.88
2023-03-16T07:17:00.055Z,56.17
2023-03-16T07:18:02.839Z,56.15
2023-03-16T07:19:05.588Z,56.24
2023-03-16T07:20:11.825Z,55.84
2023-03-16T07:21:15.373Z,55.38
2023-03-16T07:22:18.120Z,55.31
2023-03-16T07:23:21.024Z,55.23
2023-03-16T07:24:23.675Z,55.37
2023-03-16T07:25:26.330Z,55.09
2023-03-16T07:26:28.994Z,54.63
2023-03-16T07:27:32.386Z,54.81
2023-03-16T07:28:36.241Z,55.03
2023-03-16T07:29:38.869Z,54.81
2023-03-16T07:30:50.539Z,54.39
2023-03-16T07:32:03.097Z,54.07
2023-03-16T07:33:06.475Z,54.25
2023-03-16T07:34:09.248Z,54.18
2023-03-16T07:35:12.821Z,54.31
2023-03-16T07:36:15.581Z,53.79
2023-03-16T07:37:21.797Z,53.61
2023-03-16T07:38:27.681Z,53.50
2023-03-16T07:39:30.334Z,53.31
2023-03-16T07:40:35.488Z,53.19
2023-03-16T07:41:38.245Z,52.74
2023-03-16T07:42:41.527Z,52.43
2023-03-16T07:43:45.491Z,52.43
2023-03-16T07:44:49.070Z,52.56
2023-03-16T07:45:54.107Z,51.76
2023-03-16T07:46:57.390Z,52.38
2023-03-16T07:48:00.088Z,52.25
2023-03-16T07:49:02.766Z,52.18
2023-03-16T07:50:05.923Z,51.75
2023-03-16T07:51:08.652Z,52.30
2023-03-16T07:54:22.427Z,51.52
2023-03-16T07:55:28.153Z,51.48
2023-03-16T07:56:42.366Z,50.10
2023-03-16T07:57:56.451Z,50.38
2023-03-16T07:58:59.421Z,50.54
2023-03-16T08:00:15.299Z,50.77
2023-03-16T08:01:18.232Z,50.76
2023-03-16T08:03:44.023Z,49.06
2023-03-16T08:04:47.290Z,49.00
2023-03-16T08:05:52.510Z,49.32
2023-03-16T08:08:31.554Z,48.83
2023-03-16T08:09:49.297Z,48.10
2023-03-16T08:10:55.068Z,48.60
2023-03-16T08:11:59.222Z,49.09
2023-03-16T08:13:01.908Z,49.26
2023-03-16T08:14:05.293Z,48.87
2023-03-16T08:15:08.863Z,48.41
2023-03-16T08:16:11.659Z,48.91
2023-03-16T08:17:14.560Z,49.42
2023-03-16T08:18:17.347Z,48.66
2023-03-16T08:19:21.341Z,47.15
2023-03-16T08:20:24.112Z,47.30
2023-03-16T08:21:27.339Z,47.40
2023-03-16T08:22:30.014Z,47.74
2023-03-16T08:23:34.697Z,48.30
2023-03-16T08:24:39.553Z,47.32
2023-03-16T08:25:42.749Z,47.56
2023-03-16T08:26:45.590Z,46.83
2023-03-16T08:27:49.667Z,47.59
2023-03-16T08:28:53.151Z,46.58
2023-03-16T08:29:56.434Z,45.89
2023-03-16T08:30:59.508Z,45.42
2023-03-16T08:32:02.199Z,45.37
2023-03-16T08:33:05.656Z,45.87
2023-03-16T08:34:08.350Z,45.77
2023-03-16T08:35:15.419Z,44.98
2023-03-16T08:36:19.462Z,44.69
2023-03-16T08:37:23.166Z,45.51
2023-03-16T08:38:26.372Z,44.74
2023-03-16T08:39:30.171Z,44.94
2023-03-16T08:40:35.905Z,45.49
2023-03-16T08:41:38.968Z,45.10
2023-03-16T08:42:42.555Z,45.23
2023-03-16T08:43:45.876Z,44.80
2023-03-16T08:44:52.033Z,45.22
2023-03-16T08:45:55.062Z,44.40
2023-03-16T08:46:57.804Z,44.95
2023-03-16T08:48:00.776Z,45.37
2023-03-16T08:49:03.965Z,44.33
2023-03-16T08:50:07.952Z,44.10
2023-03-16T08:51:12.648Z,44.22
2023-03-16T08:52:15.317Z,42.50
2023-03-16T08:53:17.953Z,42.86
2023-03-16T08:54:20.713Z,42.12
2023-03-16T08:55:23.337Z,42.83
2023-03-16T08:56:26.454Z,42.57
2023-03-16T08:57:29.172Z,42.69
2023-03-16T08:58:34.016Z,43.74
2023-03-16T08:59:36.716Z,43.11
2023-03-16T09:00:40.828Z,42.55
2023-03-16T09:01:43.728Z,43.00
2023-03-16T09:02:46.706Z,41.65
2023-03-16T09:03:49.386Z,41.24
2023-03-16T09:04:53.503Z,42.18
2023-03-16T09:06:05.969Z,41.52
2023-03-16T09:07:10.054Z,42.62
2023-03-16T09:08:13.756Z,42.10
2023-03-16T09:09:16.645Z,41.53
2023-03-16T09:10:20.057Z,41.84
2023-03-16T09:11:23.357Z,41.83
2023-03-16T09:12:26.118Z,41.59
2023-03-16T09:13:29.902Z,41.48
2023-03-16T09:14:32.815Z,41.45
2023-03-16T09:15:36.560Z,40.85
2023-03-16T09:16:39.688Z,40.85
2023-03-16T09:17:46.934Z,40.52
2023-03-16T09:18:49.613Z,40.28
2023-03-16T09:19:54.382Z,40.58
2023-03-16T09:21:07.745Z,40.45
2023-03-16T09:22:11.438Z,40.59
2023-03-16T09:23:15.092Z,40.22
2023-03-16T09:24:17.859Z,39.38
2023-03-16T09:25:21.561Z,39.15
2023-03-16T09:26:24.254Z,40.30
2023-03-16T09:27:27.462Z,40.25
2023-03-16T09:28:32.396Z,39.70
2023-03-16T09:29:35.379Z,40.03
2023-03-16T09:30:38.664Z,39.52
2023-03-16T09:31:42.171Z,39.79
2023-03-16T09:32:45.065Z,39.84
2023-03-16T09:33:48.654Z,39.38
2023-03-16T09:34:51.709Z,38.85
2023-03-16T09:35:54.407Z,39.35
2023-03-16T09:36:57.541Z,39.12
2023-03-16T09:38:07.345Z,39.27
2023-03-16T09:39:10.082Z,38.69
2023-03-16T09:40:26.469Z,39.98
2023-03-16T09:41:42.382Z,39.89
2023-03-16T09:42:56.322Z,38.96
2023-03-16T09:44:26.245Z,39.73
2023-03-16T09:45:54.048Z,38.61
2023-03-16T09:46:59.555Z,37.99
2023-03-16T09:48:06.097Z,38.55
2023-03-16T09:49:11.950Z,38.56
2023-03-16T09:50:22.069Z,38.38
2023-03-16T09:51:41.437Z,37.76
2023-03-16T09:53:16.508Z,39.12
2023-03-16T09:54:33.226Z,38.75
2023-03-16T09:55:40.036Z,37.86
2023-03-16T09:56:44.379Z,38.03
2023-03-16T09:57:48.344Z,37.25
2023-03-16T09:58:51.156Z,38.16
2023-03-16T09:59:54.314Z,37.35
2023-03-16T10:01:15.450Z,36.90
2023-03-16T10:02:47.698Z,37.53
2023-03-16T10:04:04.830Z,37.40
2023-03-16T10:05:14.400Z,37.07
2023-03-16T10:06:17.935Z,37.85
2023-03-16T10:07:42.240Z,36.06
2023-03-16T10:08:54.390Z,36.85
2023-03-16T10:10:25.848Z,36.58
2023-03-16T10:11:31.476Z,36.54
2023-03-16T10:12:39.220Z,36.37
2023-03-16T10:14:04.307Z,36.88
2023-03-16T10:15:17.688Z,36.11
2023-03-16T10:16:23.563Z,36.29
2023-03-16T10:17:56.588Z,36.41
2023-03-16T10:19:11.147Z,36.41
2023-03-16T10:20:21.800Z,35.98
2023-03-16T10:21:25.778Z,35.74
2023-03-16T10:22:33.164Z,36.59
2023-03-16T10:23:36.670Z,35.62
2023-03-16T10:25:03.508Z,36.22
2023-03-16T10:26:14.825Z,35.38
2023-03-16T10:27:28.221Z,35.96
2023-03-16T10:28:38.655Z,35.89
2023-03-16T10:29:42.542Z,36.27
2023-03-16T10:30:45.740Z,36.88
2023-03-16T10:31:48.481Z,36.91
2023-03-16T10:32:51.592Z,36.09
2023-03-16T10:34:03.727Z,35.76
2023-03-16T10:35:24.083Z,36.25
2023-03-16T10:36:35.866Z,36.26
2023-03-16T10:37:39.892Z,35.06
2023-03-16T10:38:47.904Z,36.22
2023-03-16T10:39:50.691Z,35.74
2023-03-16T10:40:55.149Z,35.22
2023-03-16T10:42:00.730Z,35.85
2023-03-16T10:43:16.285Z,34.38
2023-03-16T10:44:27.886Z,35.15
2023-03-16T10:45:33.470Z,34.80
2023-03-16T10:46:40.614Z,33.89
2023-03-16T10:47:43.931Z,34.46
2023-03-16T10:48:55.825Z,34.70
2023-03-16T10:49:58.991Z,35.07
2023-03-16T10:51:08.506Z,34.51
2023-03-16T10:52:21.020Z,33.59
2023-03-16T10:53:36.009Z,33.34
2023-03-16T10:54:41.917Z,32.37
2023-03-16T10:55:46.804Z,31.38
2023-03-16T10:56:51.618Z,33.02
2023-03-16T10:57:56.847Z,33.18
2023-03-16T10:58:59.526Z,32.70
2023-03-16T11:00:14.957Z,32.71
2023-03-16T11:01:22.518Z,32.69
2023-03-16T11:02:33.681Z,32.80
2023-03-16T11:03:42.798Z,32.47
2023-03-16T11:04:45.514Z,32.71
2023-03-16T11:05:48.329Z,31.92
2023-03-16T11:06:57.324Z,32.62
2023-03-16T11:08:17.635Z,33.31
2023-03-16T11:09:34.066Z,32.39
2023-03-16T11:10:49.370Z,31.87
2023-03-16T11:11:57.678Z,30.85
2023-03-16T11:13:04.804Z,31.72
2023-03-16T11:14:16.569Z,32.44
2023-03-16T11:15:25.955Z,31.34
2023-03-16T11:16:52.344Z,31.50
2023-03-16T11:17:55.768Z,31.65
2023-03-16T11:19:05.096Z,31.11
2023-03-16T11:20:15.452Z,31.26
2023-03-16T11:21:22.182Z,31.31
2023-03-16T11:22:27.345Z,31.85
2023-03-16T11:23:38.088Z,31.70
2023-03-16T11:24:53.644Z,30.78
2023-03-16T11:26:00.332Z,31.65
2023-03-16T11:27:09.624Z,31.45
2023-03-16T11:28:33.688Z,31.30
2023-03-16T11:29:52.318Z,31.37
2023-03-16T11:31:29.904Z,31.19
2023-03-16T11:32:46.125Z,30.29
2023-03-16T11:33:50.269Z,30.47
2023-03-16T11:34:54.496Z,29.97
2023-03-16T11:36:52.782Z,29.80
2023-03-16T11:38:12.867Z,28.90
2023-03-16T11:39:47.785Z,30.40
2023-03-16T11:41:06.941Z,29.62
2023-03-16T11:42:19.812Z,30.01
2023-03-16T11:43:59.630Z,29.27
2023-03-16T11:45:28.462Z,28.62
2023-03-16T11:46:53.123Z,29.38
2023-03-16T11:48:37.793Z,28.54
2023-03-16T11:49:43.967Z,28.81
2023-03-16T11:51:04.857Z,29.53
2023-03-16T11:52:43.272Z,28.95
2023-03-16T11:53:57.627Z,28.76
2023-03-16T11:55:00.323Z,28.14
2023-03-16T11:56:24.801Z,26.93
2023-03-16T12:05:01.792Z,27.50
2023-03-16T12:08:35.182Z,26.24
2023-03-16T12:09:56.939Z,26.58
2023-03-16T12:11:05.773Z,25.22
2023-03-16T12:12:24.251Z,25.93
2023-03-16T12:13:41.717Z,26.00
2023-03-16T12:14:52.916Z,25.30
2023-03-16T12:16:06.771Z,23.79
2023-03-16T12:17:21.689Z,25.04
2023-03-16T12:18:42.754Z,24.81
2023-03-16T12:19:56.846Z,25.00
2023-03-16T12:21:16.172Z,25.23
2023-03-16T12:22:29.460Z,26.11
2023-03-16T12:23:39.761Z,25.42
2023-03-16T12:24:45.632Z,25.17
2023-03-16T12:25:50.362Z,24.73
2023-03-16T12:26:54.452Z,24.37
2023-03-16T12:27:59.960Z,24.66
2023-03-16T12:29:15.367Z,24.92
2023-03-16T12:31:10.812Z,24.67
2023-03-16T12:32:20.299Z,25.91
2023-03-16T12:34:00.320Z,24.92
2023-03-16T12:35:28.646Z,24.59
2023-03-16T12:36:37.932Z,25.60
2023-03-16T12:38:07.182Z,25.30
2023-03-16T12:39:14.749Z,25.16
2023-03-16T12:40:47.507Z,24.37
2023-03-16T12:42:23.133Z,25.01
2023-03-16T12:43:34.739Z,25.32
2023-03-16T12:44:51.087Z,26.58
2023-03-16T12:46:27.759Z,26.21
2023-03-16T12:47:58.945Z,26.91
2023-03-16T12:49:03.888Z,26.79
2023-03-16T12:50:10.532Z,25.97
2023-03-16T12:51:13.307Z,25.02
2023-03-16T12:52:16.143Z,25.12
2023-03-16T12:53:54.247Z,25.76
2023-03-16T12:55:15.628Z,25.57
2023-03-16T12:56:21.591Z,25.17
2023-03-16T12:57:28.116Z,25.27
2023-03-16T12:58:31.168Z,26.13
2023-03-16T12:59:59.393Z,25.15
2023-03-16T13:01:02.789Z,25.43
2023-03-16T13:02:15.442Z,25.28
2023-03-16T13:03:22.421Z,25.53
2023-03-16T13:04:34.839Z,25.09
2023-03-16T13:05:39.484Z,25.98
2023-03-16T13:06:51.293Z,25.59
2023-03-16T13:08:25.497Z,26.24
2023-03-16T13:09:32.893Z,26.11
2023-03-16T13:10:36.108Z,25.82
2023-03-16T13:11:51.226Z,25.62
2023-03-16T13:12:53.892Z,25.89
2023-03-16T13:14:36.134Z,25.34
2023-03-16T13:15:40.812Z,26.20
2023-03-16T13:16:44.935Z,26.33
2023-03-16T13:17:50.094Z,25.63
2023-03-16T13:18:54.332Z,25.49
2023-03-16T13:20:33.310Z,25.54
2023-03-16T13:21:39.558Z,26.20
2023-03-16T13:22:49.599Z,25.28
2023-03-16T13:24:01.110Z,26.13
2023-03-16T13:25:23.613Z,26.40
2023-03-16T13:26:53.310Z,25.78
2023-03-16T13:28:00.203Z,25.97
2023-03-16T13:29:22.766Z,24.60
2023-03-16T13:30:30.035Z,26.02
2023-03-16T13:31:43.132Z,26.31
2023-03-16T13:32:46.415Z,25.53
2023-03-16T13:33:51.665Z,25.96
2023-03-16T13:34:59.645Z,25.56
2023-03-16T13:36:02.434Z,25.50
2023-03-16T13:37:05.377Z,26.03
2023-03-16T13:38:16.823Z,26.16
2023-03-16T13:39:23.452Z,27.56
2023-03-16T13:40:28.948Z,26.37
2023-03-16T13:41:31.987Z,27.43
2023-03-16T13:42:35.306Z,27.81
2023-03-16T13:43:43.672Z,26.76
2023-03-16T13:44:47.085Z,26.93
2023-03-16T13:45:49.796Z,26.87
2023-03-16T13:46:52.469Z,26.83
2023-03-16T13:47:55.275Z,27.37
2023-03-16T13:49:03.711Z,27.37
2023-03-16T13:50:08.335Z,27.14
2023-03-16T13:51:23.702Z,27.21
2023-03-16T13:52:30.450Z,27.06
2023-03-16T13:53:34.152Z,27.56
2023-03-16T13:54:38.364Z,27.32
2023-03-16T13:55:42.741Z,27.35
2023-03-16T13:56:45.523Z,27.82
2023-03-16T13:57:50.240Z,27.37
2023-03-16T13:58:54.965Z,26.69
2023-03-16T14:00:19.214Z,24.77
2023-03-16T14:01:32.089Z,25.75
2023-03-16T14:02:42.866Z,25.46
2023-03-16T14:03:46.397Z,25.63
2023-03-16T14:04:49.470Z,26.71
2023-03-16T14:05:52.109Z,26.16
2023-03-16T14:06:59.890Z,26.78
2023-03-16T14:08:03.535Z,26.53
2023-03-16T14:09:19.290Z,26.19
2023-03-16T14:10:24.240Z,26.73
2023-03-16T14:11:28.110Z,26.71
2023-03-16T14:12:30.810Z,26.63
2023-03-16T14:13:37.342Z,28.02
2023-03-16T14:14:42.290Z,27.08
2023-03-16T14:15:46.491Z,26.95
2023-03-16T14:16:50.007Z,27.16
2023-03-16T14:17:52.906Z,26.48
2023-03-16T14:18:57.470Z,26.35
2023-03-16T14:20:01.982Z,27.38
2023-03-16T14:21:27.891Z,26.42
2023-03-16T14:22:38.234Z,26.03
2023-03-16T14:23:49.034Z,26.22
2023-03-16T14:25:00.144Z,26.18
2023-03-16T14:26:05.582Z,25.79
2023-03-16T14:27:42.613Z,25.94
2023-03-16T14:29:05.741Z,26.55
2023-03-16T14:30:28.763Z,26.78
2023-03-16T14:31:37.280Z,26.98
2023-03-16T14:32:41.087Z,26.29
2023-03-16T14:33:44.350Z,25.83
2023-03-16T14:34:50.956Z,25.75
2023-03-16T14:35:58.118Z,27.05
2023-03-16T14:37:12.851Z,26.39
2023-03-16T14:38:39.188Z,27.73
2023-03-16T14:39:42.605Z,27.43
2023-03-16T14:40:58.613Z,27.14
2023-03-16T14:42:05.081Z,27.53
2023-03-16T14:48:02.395Z,27.35
2023-03-16T14:49:11.400Z,26.52
2023-03-16T14:50:35.759Z,26.56